createdAt,value
2017-08-08T00:01:57.970Z,5.93
2017-08-08T00:04:25.554Z,6.40
2017-08-08T00:06:53.148Z,6.10
2017-08-08T00:09:20.728Z,6.13
2017-08-08T00:11:48.306Z,6.67
2017-08-08T00:14:15.880Z,6.10
2017-08-08T00:16:43.467Z,6.43
2017-08-08T00:19:11.031Z,5.67
2017-08-08T00:21:38.604Z,6.57
2017-08-08T00:24:06.185Z,6.90
2017-08-08T00:26:34.079Z,6.37
2017-08-08T00:29:02.429Z,5.57
2017-08-08T00:31:30.000Z,6.60
2017-08-08T00:33:57.603Z,5.63
2017-08-08T00:36:25.947Z,5.93
2017-08-08T00:38:53.517Z,6.17
2017-08-08T00:41:21.094Z,5.90
2017-08-08T00:43:49.428Z,6.47
2017-08-08T00:46:16.991Z,5.50
2017-08-08T00:48:44.573Z,7.03
2017-08-08T00:51:12.236Z,5.37
2017-08-08T00:53:40.238Z,6.47
2017-08-08T00:56:07.829Z,5.27
2017-08-08T00:58:35.396Z,5.20
2017-08-08T01:01:02.989Z,5.17
2017-08-08T01:03:30.593Z,6.83
2017-08-08T01:05:58.200Z,6.97
2017-08-08T01:08:25.776Z,6.10
2017-08-08T01:10:53.349Z,5.87
2017-08-08T01:13:20.932Z,6.13
2017-08-08T01:15:48.495Z,7.00
2017-08-08T01:18:16.050Z,6.80
2017-08-08T01:20:43.899Z,6.23
2017-08-08T01:23:11.463Z,6.10
2017-08-08T01:25:39.016Z,6.27
2017-08-08T01:28:06.589Z,7.20
2017-08-08T01:30:34.155Z,6.77
2017-08-08T01:33:01.815Z,6.67
2017-08-08T01:35:29.374Z,6.90
2017-08-08T01:37:56.932Z,6.80
2017-08-08T01:40:24.499Z,6.57
2017-08-08T01:42:52.079Z,6.30
2017-08-08T01:45:19.672Z,7.07
2017-08-08T01:47:47.519Z,6.40
2017-08-08T01:50:15.093Z,7.20
2017-08-08T01:52:42.666Z,6.20
2017-08-08T01:55:10.249Z,6.63
2017-08-08T01:57:37.822Z,7.00
2017-08-08T02:00:05.390Z,6.73
2017-08-08T02:02:32.955Z,6.93
2017-08-08T02:05:00.529Z,6.47
2017-08-08T02:07:28.867Z,7.40
2017-08-08T02:09:56.427Z,7.57
2017-08-08T02:12:23.984Z,7.03
2017-08-08T02:14:51.565Z,7.47
2017-08-08T02:17:19.143Z,7.53
2017-08-08T02:19:47.803Z,7.50
2017-08-08T02:22:15.368Z,7.77
2017-08-08T02:24:42.923Z,7.37
2017-08-08T02:27:10.512Z,6.80
2017-08-08T02:29:38.104Z,7.93
2017-08-08T02:32:05.692Z,7.47
2017-08-08T02:34:33.277Z,7.60
2017-08-08T02:37:00.861Z,8.27
2017-08-08T02:39:28.428Z,7.83
2017-08-08T02:41:56.340Z,7.30
2017-08-08T02:44:23.920Z,7.80
2017-08-08T02:46:51.530Z,6.47
2017-08-08T02:49:19.107Z,7.10
2017-08-08T02:51:46.682Z,7.27
2017-08-08T02:54:14.261Z,6.77
2017-08-08T02:56:42.593Z,6.10
2017-08-08T02:59:10.467Z,6.90
2017-08-08T03:01:38.048Z,7.00
2017-08-08T03:04:05.617Z,6.33
2017-08-08T03:06:33.212Z,6.93
2017-08-08T03:09:00.781Z,6.53
2017-08-08T03:11:28.383Z,7.37
2017-08-08T03:13:55.951Z,6.83
2017-08-08T03:16:24.620Z,6.67
2017-08-08T03:18:52.177Z,6.97
2017-08-08T03:21:19.740Z,7.03
2017-08-08T03:23:47.333Z,6.77
2017-08-08T03:26:15.677Z,6.83
2017-08-08T03:28:43.276Z,6.40
2017-08-08T03:31:10.834Z,7.70
2017-08-08T03:33:38.751Z,6.90
2017-08-08T03:36:06.329Z,6.90
2017-08-08T03:38:33.903Z,7.27
2017-08-08T03:41:02.299Z,7.60
2017-08-08T03:43:29.869Z,7.10
2017-08-08T03:45:57.442Z,8.30
2017-08-08T03:48:25.012Z,7.13
2017-08-08T03:50:52.587Z,7.50
2017-08-08T03:53:20.144Z,7.77
2017-08-08T03:55:48.000Z,7.43
2017-08-08T03:58:15.585Z,7.30
2017-08-08T04:00:43.152Z,7.77
2017-08-08T04:03:11.507Z,7.13
2017-08-08T04:05:39.100Z,7.80
2017-08-08T04:08:07.440Z,8.60
2017-08-08T04:10:35.010Z,7.50
2017-08-08T04:13:02.588Z,7.80
2017-08-08T04:15:30.936Z,7.30
2017-08-08T04:17:58.807Z,7.87
2017-08-08T04:20:26.359Z,7.27
2017-08-08T04:22:53.937Z,8.27
2017-08-08T04:25:21.524Z,7.90
2017-08-08T04:27:49.076Z,8.67
2017-08-08T04:30:17.419Z,8.33
2017-08-08T04:32:44.984Z,8.40
2017-08-08T04:35:12.568Z,8.60
2017-08-08T04:37:40.896Z,8.03
2017-08-08T04:40:08.755Z,8.93
2017-08-08T04:42:36.333Z,8.07
2017-08-08T04:45:03.917Z,9.00
2017-08-08T04:47:32.266Z,8.50
2017-08-08T04:49:59.838Z,9.17
2017-08-08T04:52:27.415Z,8.63
2017-08-08T04:54:55.740Z,8.43
2017-08-08T04:57:23.569Z,8.43
2017-08-08T04:59:51.136Z,8.23
2017-08-08T05:02:18.713Z,8.03
2017-08-08T05:04:46.290Z,7.83
2017-08-08T05:07:13.873Z,9.30
2017-08-08T05:09:41.503Z,8.00
2017-08-08T05:12:09.091Z,7.87
2017-08-08T05:14:36.947Z,7.93
2017-08-08T05:17:04.536Z,7.90
2017-08-08T05:19:32.879Z,7.93
2017-08-08T05:22:00.457Z,9.00
2017-08-08T05:24:28.015Z,9.00
2017-08-08T05:26:55.590Z,8.70
2017-08-08T05:29:23.921Z,8.23
2017-08-08T05:31:51.498Z,8.07
2017-08-08T05:34:19.071Z,7.83
2017-08-08T05:36:46.927Z,7.90
2017-08-08T05:39:14.496Z,8.23
2017-08-08T05:41:42.109Z,8.37
2017-08-08T05:44:09.686Z,8.53
2017-08-08T05:46:37.243Z,7.60
2017-08-08T05:49:04.829Z,8.20
2017-08-08T05:51:32.395Z,6.90
2017-08-08T05:53:59.985Z,7.40
2017-08-08T05:56:27.550Z,7.23
2017-08-08T05:58:55.460Z,7.77
2017-08-08T06:01:23.023Z,7.60
2017-08-08T06:03:50.659Z,7.53
2017-08-08T06:06:18.236Z,7.20
2017-08-08T06:08:45.808Z,7.67
2017-08-08T06:11:13.401Z,7.63
2017-08-08T06:13:40.973Z,7.50
2017-08-08T06:16:08.555Z,7.20
2017-08-08T06:18:36.144Z,6.63
2017-08-08T06:21:04.091Z,7.03
2017-08-08T06:23:31.671Z,6.27
2017-08-08T06:25:59.249Z,6.13
2017-08-08T06:28:27.605Z,5.30
2017-08-08T06:30:55.172Z,5.20
2017-08-08T06:33:22.763Z,5.83
2017-08-08T06:35:50.360Z,5.70
2017-08-08T06:38:18.247Z,5.83
2017-08-08T06:40:45.817Z,5.50
2017-08-08T06:43:13.404Z,5.50
2017-08-08T06:45:40.998Z,4.73
2017-08-08T06:48:08.550Z,5.30
2017-08-08T06:50:36.125Z,4.97
2017-08-08T06:53:03.691Z,4.90
2017-08-08T06:55:31.275Z,5.00
2017-08-08T06:57:58.832Z,4.67
2017-08-08T07:00:26.676Z,4.40
2017-08-08T07:02:54.597Z,4.60
2017-08-08T07:05:22.173Z,4.83
2017-08-08T07:07:49.761Z,4.40
2017-08-08T07:10:17.362Z,4.70
2017-08-08T07:12:45.703Z,4.80
2017-08-08T07:15:13.285Z,4.27
2017-08-08T07:17:40.872Z,4.47
2017-08-08T07:20:08.440Z,4.60
2017-08-08T07:22:36.040Z,3.93
2017-08-08T07:25:03.612Z,4.73
2017-08-08T07:27:31.188Z,4.20
2017-08-08T07:29:59.533Z,4.20
2017-08-08T07:32:27.122Z,4.80
2017-08-08T07:34:55.485Z,3.83
2017-08-08T07:37:23.053Z,3.73
2017-08-08T07:39:50.650Z,3.93
2017-08-08T07:42:18.218Z,3.97
2017-08-08T07:44:45.812Z,3.70
2017-08-08T07:47:13.379Z,4.00
2017-08-08T07:49:41.242Z,3.50
2017-08-08T07:52:08.797Z,3.67
2017-08-08T07:54:36.360Z,3.70
2017-08-08T07:57:03.955Z,3.17
2017-08-08T07:59:31.530Z,3.57
2017-08-08T08:01:59.108Z,3.50
2017-08-08T08:04:26.690Z,3.30
2017-08-08T08:06:54.274Z,3.90
2017-08-08T08:09:22.603Z,3.43
2017-08-08T08:11:50.491Z,3.10
2017-08-08T08:14:18.085Z,3.10
2017-08-08T08:16:46.421Z,2.83
2017-08-08T08:19:14.062Z,3.50
2017-08-08T08:21:41.636Z,3.60
2017-08-08T08:24:10.037Z,4.70
2017-08-08T08:26:37.601Z,3.10
2017-08-08T08:29:05.535Z,3.70
2017-08-08T08:31:33.114Z,2.83
2017-08-08T08:34:00.744Z,3.10
2017-08-08T08:36:28.308Z,3.07
2017-08-08T08:38:55.872Z,2.90
2017-08-08T08:41:23.481Z,2.80
2017-08-08T08:43:51.808Z,2.80
2017-08-08T08:46:19.685Z,3.10
2017-08-08T08:48:47.245Z,2.47
2017-08-08T08:51:14.801Z,2.90
2017-08-08T08:53:42.474Z,2.77
2017-08-08T08:56:10.043Z,2.80
2017-08-08T08:58:37.610Z,2.87
2017-08-08T09:01:05.169Z,3.00
2017-08-08T09:03:33.515Z,2.50
2017-08-08T09:06:01.081Z,3.10
2017-08-08T09:08:28.662Z,3.20
2017-08-08T09:10:56.255Z,2.93
2017-08-08T09:13:23.840Z,3.13
2017-08-08T09:15:51.397Z,3.10
2017-08-08T09:18:19.228Z,3.00
2017-08-08T09:20:46.790Z,2.70
2017-08-08T09:23:14.364Z,2.90
2017-08-08T09:25:42.035Z,2.53
2017-08-08T09:28:09.611Z,2.83
2017-08-08T09:30:37.183Z,2.80
2017-08-08T09:33:04.747Z,2.93
2017-08-08T09:35:32.322Z,2.30
2017-08-08T09:38:00.663Z,2.80
2017-08-08T09:40:28.253Z,3.07
2017-08-08T09:42:56.589Z,2.63
2017-08-08T09:45:24.472Z,3.23
2017-08-08T09:47:52.042Z,3.03
2017-08-08T09:50:19.617Z,2.87
2017-08-08T09:52:47.957Z,2.83
2017-08-08T09:55:15.523Z,4.10
2017-08-08T09:57:43.107Z,4.37
2017-08-08T10:00:10.674Z,4.37
2017-08-08T10:02:39.029Z,3.90
2017-08-08T10:05:06.595Z,3.97
2017-08-08T10:07:34.170Z,3.10
2017-08-08T10:10:01.760Z,3.40
2017-08-08T10:12:29.335Z,3.90
2017-08-08T10:14:56.921Z,3.50
2017-08-08T10:17:24.488Z,4.17
2017-08-08T10:19:52.068Z,3.00
2017-08-08T10:22:20.390Z,2.97
2017-08-08T10:24:48.207Z,3.80
2017-08-08T10:27:16.567Z,3.40
2017-08-08T10:29:44.130Z,3.00
2017-08-08T10:32:11.712Z,2.80
2017-08-08T10:34:39.279Z,3.20
2017-08-08T10:37:06.884Z,2.93
2017-08-08T10:39:34.457Z,3.77
2017-08-08T10:42:02.033Z,3.50
2017-08-08T10:44:30.379Z,3.10
2017-08-08T10:46:58.237Z,3.60
2017-08-08T10:49:25.808Z,3.47
2017-08-08T10:51:53.406Z,2.83
2017-08-08T10:54:21.746Z,3.10
2017-08-08T10:56:49.306Z,3.30
2017-08-08T10:59:16.895Z,3.00
2017-08-08T11:01:45.243Z,3.60
2017-08-08T11:04:12.841Z,3.50
2017-08-08T11:06:41.181Z,2.80
2017-08-08T11:09:08.763Z,3.13
2017-08-08T11:11:37.075Z,3.07
2017-08-08T11:14:05.055Z,3.00
2017-08-08T11:16:32.608Z,2.97
2017-08-08T11:19:00.459Z,3.37
2017-08-08T11:21:28.034Z,2.77
2017-08-08T11:23:55.609Z,3.60
2017-08-08T11:26:23.194Z,3.00
2017-08-08T11:28:50.790Z,3.53
2017-08-08T11:31:18.363Z,3.17
2017-08-08T11:33:45.928Z,3.40
2017-08-08T11:36:13.516Z,3.90
2017-08-08T11:38:41.102Z,3.70
2017-08-08T11:41:09.431Z,3.77
2017-08-08T11:43:37.087Z,3.87
2017-08-08T11:46:04.958Z,3.30
2017-08-08T11:48:32.521Z,2.90
2017-08-08T11:51:00.069Z,3.60
2017-08-08T11:53:27.663Z,3.80
2017-08-08T11:55:55.238Z,2.93
2017-08-08T11:58:23.576Z,4.10
2017-08-08T12:00:51.139Z,4.90
2017-08-08T12:03:18.728Z,5.30
2017-08-08T12:05:47.067Z,5.57
2017-08-08T12:08:14.639Z,5.90
2017-08-08T12:10:42.199Z,6.10
2017-08-08T12:13:10.066Z,6.47
2017-08-08T12:15:37.653Z,5.70
2017-08-08T12:18:05.997Z,5.87
2017-08-08T12:20:33.582Z,7.10
2017-08-08T12:23:01.156Z,7.87
2017-08-08T12:25:29.526Z,5.73
2017-08-08T12:27:57.881Z,5.37
2017-08-08T12:30:25.479Z,4.70
2017-08-08T12:32:53.843Z,3.87
2017-08-08T12:35:22.495Z,3.83
2017-08-08T12:37:50.062Z,4.07
2017-08-08T12:40:17.637Z,4.83
2017-08-08T12:42:45.242Z,4.27
2017-08-08T12:45:12.819Z,5.20
2017-08-08T12:47:40.410Z,4.20
2017-08-08T12:50:07.994Z,4.77
2017-08-08T12:52:35.904Z,4.23
2017-08-08T12:55:03.472Z,4.27
2017-08-08T12:57:31.031Z,4.00
2017-08-08T12:59:58.620Z,4.73
2017-08-08T13:02:26.951Z,4.47
2017-08-08T13:04:54.541Z,4.70
2017-08-08T13:07:22.118Z,5.00
2017-08-08T13:09:49.698Z,5.00
2017-08-08T13:12:17.263Z,5.57
2017-08-08T13:14:44.830Z,5.00
2017-08-08T13:17:12.505Z,5.50
2017-08-08T13:19:40.066Z,5.77
2017-08-08T13:22:07.663Z,5.47
2017-08-08T13:24:35.227Z,4.80
2017-08-08T13:27:02.818Z,5.90
2017-08-08T13:29:30.396Z,5.47
2017-08-08T13:31:57.993Z,5.60
2017-08-08T13:34:25.564Z,5.40
2017-08-08T13:36:53.145Z,5.50
2017-08-08T13:39:20.710Z,6.10
2017-08-08T13:41:48.651Z,5.73
2017-08-08T13:44:16.215Z,5.07
2017-08-08T13:46:44.527Z,5.50
2017-08-08T13:49:12.105Z,5.10
2017-08-08T13:51:39.668Z,5.70
2017-08-08T13:54:07.258Z,5.20
2017-08-08T13:56:34.820Z,5.77
2017-08-08T13:59:02.397Z,6.87
2017-08-08T14:01:30.757Z,6.80
2017-08-08T14:03:58.692Z,5.70
2017-08-08T14:06:26.254Z,6.70
2017-08-08T14:08:53.847Z,7.07
2017-08-08T14:11:22.191Z,5.23
2017-08-08T14:13:49.752Z,5.30
2017-08-08T14:16:17.327Z,4.47
2017-08-08T14:18:44.916Z,4.20
2017-08-08T14:21:13.523Z,4.10
2017-08-08T14:23:41.184Z,4.53
2017-08-08T14:26:08.779Z,4.57
2017-08-08T14:28:36.352Z,5.07
2017-08-08T14:31:03.936Z,5.60
2017-08-08T14:33:32.276Z,5.60
2017-08-08T14:35:59.829Z,6.27
2017-08-08T14:38:28.171Z,5.43
2017-08-08T14:40:55.740Z,5.33
2017-08-08T14:43:23.628Z,5.77
2017-08-08T14:45:51.185Z,4.90
2017-08-08T14:48:18.770Z,5.37
2017-08-08T14:50:46.372Z,5.63
2017-08-08T14:53:13.954Z,5.10
2017-08-08T14:55:41.578Z,4.50
2017-08-08T14:58:09.189Z,5.17
2017-08-08T15:00:36.797Z,5.50
2017-08-08T15:03:04.373Z,4.77
2017-08-08T15:05:32.241Z,4.80
2017-08-08T15:07:59.816Z,4.30
2017-08-08T15:10:27.392Z,3.40
2017-08-08T15:12:54.967Z,4.00
2017-08-08T15:15:22.570Z,2.83
2017-08-08T15:17:50.158Z,3.10
2017-08-08T15:20:17.748Z,2.77
2017-08-08T15:22:45.342Z,2.43
2017-08-08T15:25:12.906Z,2.97
2017-08-08T15:27:40.533Z,3.00
2017-08-08T15:30:08.152Z,2.43
2017-08-08T15:32:36.038Z,2.60
2017-08-08T15:35:03.636Z,2.10
2017-08-08T15:37:32.136Z,1.97
2017-08-08T15:39:59.736Z,2.07
2017-08-08T15:42:27.301Z,1.70
2017-08-08T15:44:54.889Z,1.60
2017-08-08T15:47:22.494Z,1.93
2017-08-08T15:49:50.080Z,1.70
2017-08-08T15:52:17.707Z,2.20
2017-08-08T15:54:45.326Z,1.93
2017-08-08T15:57:13.676Z,1.60
2017-08-08T15:59:41.639Z,1.30
2017-08-08T16:02:09.199Z,1.30
2017-08-08T16:04:36.763Z,1.60
2017-08-08T16:07:04.361Z,1.20
2017-08-08T16:09:31.950Z,1.27
2017-08-08T16:11:59.533Z,1.23
2017-08-08T16:14:27.107Z,1.57
2017-08-08T16:16:54.700Z,1.30
2017-08-08T16:19:22.262Z,1.40
2017-08-08T16:21:50.119Z,1.60
2017-08-08T16:24:17.711Z,1.80
2017-08-08T16:26:46.026Z,1.40
2017-08-08T16:29:13.603Z,1.53
2017-08-08T16:31:41.265Z,2.10
2017-08-08T16:34:08.849Z,1.87
2017-08-08T16:36:37.195Z,1.73
2017-08-08T16:39:05.162Z,1.87
2017-08-08T16:41:32.746Z,2.30
2017-08-08T16:44:00.314Z,2.00
2017-08-08T16:46:28.677Z,2.00
2017-08-08T16:48:56.264Z,1.60
2017-08-08T16:51:24.615Z,1.90
2017-08-08T16:53:52.207Z,2.10
2017-08-08T16:56:20.128Z,2.10
2017-08-08T16:58:47.720Z,1.93
2017-08-08T17:01:15.301Z,2.30
2017-08-08T17:03:42.988Z,2.17
2017-08-08T17:06:10.568Z,1.97
2017-08-08T17:08:38.156Z,2.40
2017-08-08T17:11:06.508Z,2.00
2017-08-08T17:13:34.360Z,1.90
2017-08-08T17:16:01.924Z,1.60
2017-08-08T17:18:29.482Z,2.27
2017-08-08T17:20:57.094Z,2.10
2017-08-08T17:23:24.659Z,2.70
2017-08-08T17:25:52.231Z,2.63
2017-08-08T17:28:19.790Z,3.07
2017-08-08T17:30:47.697Z,2.73
2017-08-08T17:33:15.271Z,2.80
2017-08-08T17:35:43.061Z,2.43
2017-08-08T17:38:10.667Z,2.60
2017-08-08T17:40:38.248Z,3.20
2017-08-08T17:43:05.852Z,3.03
2017-08-08T17:45:33.407Z,3.00
2017-08-08T17:48:01.341Z,3.40
2017-08-08T17:50:28.916Z,3.33
2017-08-08T17:52:57.334Z,2.83
2017-08-08T17:55:24.974Z,3.00
2017-08-08T17:57:52.550Z,3.93
2017-08-08T18:00:20.152Z,2.90
2017-08-08T18:02:47.733Z,2.90
2017-08-08T18:05:16.358Z,2.73
2017-08-08T18:07:43.941Z,2.70
2017-08-08T18:10:11.536Z,2.70
2017-08-08T18:12:39.124Z,2.77
2017-08-08T18:15:06.703Z,2.83
2017-08-08T18:17:34.298Z,2.40
2017-08-08T18:20:02.638Z,2.60
2017-08-08T18:22:30.509Z,2.70
2017-08-08T18:24:58.119Z,3.00
2017-08-08T18:27:25.711Z,2.53
2017-08-08T18:29:53.411Z,2.50
2017-08-08T18:32:21.004Z,2.67
2017-08-08T18:34:48.592Z,2.90
2017-08-08T18:37:16.184Z,2.93
2017-08-08T18:39:43.852Z,2.70
2017-08-08T18:42:11.429Z,3.23
2017-08-08T18:44:39.775Z,2.70
2017-08-08T18:47:07.358Z,2.50
2017-08-08T18:49:35.706Z,2.60
2017-08-08T18:52:03.624Z,1.80
2017-08-08T18:54:31.204Z,2.20
2017-08-08T18:56:58.802Z,1.60
2017-08-08T18:59:26.364Z,1.30
2017-08-08T19:01:54.040Z,1.37
2017-08-08T19:04:21.694Z,1.30
2017-08-08T19:06:49.338Z,1.37
2017-08-08T19:09:16.904Z,1.50
2017-08-08T19:11:44.861Z,1.23
2017-08-08T19:14:12.468Z,1.50
2017-08-08T19:16:40.055Z,1.70
2017-08-08T19:19:07.693Z,1.97
2017-08-08T19:21:35.385Z,1.80
2017-08-08T19:24:02.985Z,2.10
2017-08-08T19:26:30.572Z,3.37
2017-08-08T19:28:58.164Z,3.57
2017-08-08T19:31:25.769Z,4.17
2017-08-08T19:33:54.422Z,2.80
2017-08-08T19:36:22.019Z,3.40
2017-08-08T19:38:50.356Z,3.03
2017-08-08T19:41:17.935Z,2.53
2017-08-08T19:43:45.524Z,2.40
2017-08-08T19:46:13.109Z,2.80
2017-08-08T19:48:40.734Z,2.77
2017-08-08T19:51:09.092Z,2.40
2017-08-08T19:53:36.682Z,2.10
2017-08-08T19:56:04.617Z,2.47
2017-08-08T19:58:32.187Z,2.93
2017-08-08T20:01:00.884Z,2.47
2017-08-08T20:03:29.249Z,2.40
2017-08-08T20:05:57.573Z,2.30
2017-08-08T20:08:25.158Z,2.23
2017-08-08T20:10:52.718Z,3.00
2017-08-08T20:13:20.331Z,2.27
2017-08-08T20:15:47.928Z,2.77
2017-08-08T20:18:15.518Z,2.30
2017-08-08T20:20:43.863Z,1.97
2017-08-08T20:23:11.871Z,2.23
2017-08-08T20:25:40.325Z,2.13
2017-08-08T20:28:07.915Z,1.43
2017-08-08T20:30:35.510Z,2.13
2017-08-08T20:33:03.085Z,1.87
2017-08-08T20:35:30.668Z,1.80
2017-08-08T20:37:58.321Z,1.90
2017-08-08T20:40:26.294Z,1.43
2017-08-08T20:42:53.883Z,1.60
2017-08-08T20:45:22.224Z,1.17
2017-08-08T20:47:49.842Z,1.30
2017-08-08T20:50:17.427Z,1.57
2017-08-08T20:52:45.039Z,1.30
2017-08-08T20:55:12.640Z,1.23
2017-08-08T20:57:40.216Z,1.10
2017-08-08T21:00:07.792Z,1.30
2017-08-08T21:02:35.656Z,1.10
2017-08-08T21:05:03.243Z,1.30
2017-08-08T21:07:30.830Z,1.10
2017-08-08T21:09:58.408Z,1.10
2017-08-08T21:12:25.994Z,0.93
2017-08-08T21:14:53.586Z,1.10
2017-08-08T21:17:21.164Z,1.00
2017-08-08T21:19:48.750Z,1.30
2017-08-08T21:22:16.334Z,1.30
2017-08-08T21:24:44.287Z,1.00
2017-08-08T21:27:11.869Z,1.00
2017-08-08T21:29:40.217Z,1.00
2017-08-08T21:32:07.803Z,1.30
2017-08-08T21:34:36.143Z,1.00
2017-08-08T21:37:03.725Z,1.00
2017-08-08T21:39:31.304Z,1.07
2017-08-08T21:41:58.892Z,1.10
2017-08-08T21:44:26.456Z,1.20
2017-08-08T21:46:54.025Z,1.20
2017-08-08T21:49:21.589Z,1.27
2017-08-08T21:51:49.453Z,1.03
2017-08-08T21:54:17.035Z,1.50
2017-08-08T21:56:44.621Z,1.27
2017-08-08T21:59:12.966Z,1.33
2017-08-08T22:01:40.519Z,1.23
2017-08-08T22:04:08.105Z,1.07
2017-08-08T22:06:35.688Z,0.93
2017-08-08T22:09:04.017Z,1.27
2017-08-08T22:11:31.601Z,1.87
2017-08-08T22:13:59.192Z,1.50
2017-08-08T22:16:26.776Z,1.30
2017-08-08T22:18:54.348Z,1.10
2017-08-08T22:21:21.928Z,1.37
2017-08-08T22:23:49.489Z,1.47
2017-08-08T22:26:17.061Z,1.07
2017-08-08T22:28:44.619Z,1.30
2017-08-08T22:31:12.200Z,1.70
2017-08-08T22:33:39.786Z,1.30
2017-08-08T22:36:07.385Z,1.20
2017-08-08T22:38:34.959Z,1.20
2017-08-08T22:41:02.545Z,1.37
2017-08-08T22:43:30.102Z,1.67
2017-08-08T22:45:57.672Z,1.33
2017-08-08T22:48:25.260Z,1.50
2017-08-08T22:50:52.828Z,1.40
2017-08-08T22:53:20.407Z,1.57
2017-08-08T22:55:47.964Z,1.50
2017-08-08T22:58:15.555Z,1.53
2017-08-08T23:00:43.184Z,1.30
2017-08-08T23:03:11.127Z,1.63
2017-08-08T23:05:38.706Z,1.70
2017-08-08T23:08:06.279Z,1.60
2017-08-08T23:10:33.851Z,1.63
2017-08-08T23:13:02.208Z,1.33
2017-08-08T23:15:29.788Z,1.43
2017-08-08T23:17:57.351Z,1.60
2017-08-08T23:20:25.260Z,1.30
2017-08-08T23:22:52.831Z,1.63
2017-08-08T23:25:20.411Z,1.60
2017-08-08T23:27:47.983Z,1.40
2017-08-08T23:30:15.549Z,1.60
2017-08-08T23:32:43.181Z,1.73
2017-08-08T23:35:10.759Z,1.97
2017-08-08T23:37:39.113Z,1.33
2017-08-08T23:40:06.723Z,1.93
2017-08-08T23:42:34.299Z,1.50
2017-08-08T23:45:01.869Z,1.40
2017-08-08T23:47:29.422Z,1.40
2017-08-08T23:49:56.985Z,1.93
2017-08-08T23:52:24.561Z,1.53
2017-08-08T23:54:52.135Z,2.23
2017-08-08T23:57:19.712Z,1.70
2017-08-08T23:59:47.550Z,1.97
